createdAt,value
2022-10-28T00:02:13.458Z,19.20
2022-10-28T00:04:45.373Z,19.22
2022-10-28T00:07:17.449Z,19.16
2022-10-28T00:09:49.424Z,19.21
2022-10-28T00:12:21.459Z,19.05
2022-10-28T00:14:53.355Z,19.07
2022-10-28T00:17:25.276Z,19.10
2022-10-28T00:19:57.215Z,19.12
2022-10-28T00:22:29.260Z,18.95
2022-10-28T00:25:01.511Z,19.04
2022-10-28T00:27:33.586Z,19.03
2022-10-28T00:30:06.344Z,18.99
2022-10-28T00:32:38.231Z,18.96
2022-10-28T00:35:10.202Z,18.94
2022-10-28T00:37:42.115Z,18.87
2022-10-28T00:40:14.094Z,18.82
2022-10-28T00:42:45.937Z,18.79
2022-10-28T00:45:18.552Z,18.76
2022-10-28T00:47:57.548Z,18.60
2022-10-28T00:50:54.323Z,18.51
2022-10-28T00:53:31.521Z,18.60
2022-10-28T00:56:06.348Z,18.54
2022-10-28T00:58:39.700Z,18.68
2022-10-28T01:01:11.629Z,18.55
2022-10-28T01:03:43.619Z,18.59
2022-10-28T01:06:16.498Z,18.70
2022-10-28T01:08:48.410Z,18.70
2022-10-28T01:11:41.052Z,18.67
2022-10-28T01:14:21.987Z,18.67
2022-10-28T01:17:23.198Z,18.62
2022-10-28T01:20:41.633Z,18.60
2022-10-28T01:23:43.302Z,18.51
2022-10-28T01:26:39.045Z,18.53
2022-10-28T01:29:19.937Z,18.53
2022-10-28T01:32:05.571Z,18.50
2022-10-28T01:35:20.223Z,18.42
2022-10-28T01:38:25.333Z,18.38
2022-10-28T01:41:23.882Z,18.37
2022-10-28T01:44:04.017Z,18.37
2022-10-28T01:46:51.697Z,18.27
2022-10-28T01:50:01.487Z,18.33
2022-10-28T01:52:34.240Z,18.32
2022-10-28T01:55:27.212Z,18.20
2022-10-28T01:58:02.100Z,18.27
2022-10-28T02:00:37.298Z,18.21
2022-10-28T02:03:10.149Z,18.23
2022-10-28T02:05:55.987Z,18.19
2022-10-28T02:08:57.797Z,18.15
2022-10-28T02:12:00.020Z,18.14
2022-10-28T02:15:02.977Z,18.11
2022-10-28T02:18:14.754Z,18.13
2022-10-28T02:21:39.470Z,18.12
2022-10-28T02:24:19.724Z,18.19
2022-10-28T02:27:10.533Z,18.05
2022-10-28T02:30:01.857Z,18.16
2022-10-28T02:32:41.397Z,18.23
2022-10-28T02:35:25.645Z,18.33
2022-10-28T02:38:05.857Z,18.37
2022-10-28T02:40:41.157Z,18.39
2022-10-28T02:43:17.720Z,18.45
2022-10-28T02:45:57.846Z,18.49
2022-10-28T02:48:41.061Z,18.45
2022-10-28T02:51:20.038Z,18.56
2022-10-28T02:54:12.134Z,18.45
2022-10-28T02:57:03.981Z,18.60
2022-10-28T02:59:35.960Z,18.65
2022-10-28T03:02:09.077Z,18.63
2022-10-28T03:04:41.119Z,18.67
2022-10-28T03:07:12.996Z,18.63
2022-10-28T03:09:44.913Z,18.67
2022-10-28T03:12:18.151Z,18.60
2022-10-28T03:14:50.038Z,18.59
2022-10-28T03:17:22.072Z,18.70
2022-10-28T03:19:53.935Z,18.66
2022-10-28T03:22:25.957Z,18.72
2022-10-28T03:24:57.850Z,18.62
2022-10-28T03:27:29.878Z,18.73
2022-10-28T03:30:01.875Z,18.73
2022-10-28T03:32:33.781Z,18.74
2022-10-28T03:35:12.521Z,18.66
2022-10-28T03:37:44.630Z,18.81
2022-10-28T03:40:16.684Z,18.76
2022-10-28T03:42:48.588Z,18.80
2022-10-28T03:45:20.535Z,18.79
2022-10-28T03:47:52.795Z,18.80
2022-10-28T03:50:25.372Z,18.74
2022-10-28T03:52:57.299Z,18.77
2022-10-28T03:55:29.287Z,18.70
2022-10-28T03:58:02.099Z,18.74
2022-10-28T04:00:34.047Z,18.83
2022-10-28T04:03:05.948Z,18.85
2022-10-28T04:05:37.825Z,18.85
2022-10-28T04:08:10.394Z,18.86
2022-10-28T04:10:47.339Z,18.81
2022-10-28T04:13:19.677Z,18.85
2022-10-28T04:15:51.567Z,18.86
2022-10-28T04:18:23.463Z,18.84
2022-10-28T04:20:55.430Z,18.68
2022-10-28T04:23:27.611Z,18.78
2022-10-28T04:25:59.770Z,18.77
2022-10-28T04:28:31.704Z,18.84
2022-10-28T04:31:03.764Z,18.84
2022-10-28T04:33:35.807Z,18.69
2022-10-28T04:36:08.171Z,18.83
2022-10-28T04:38:40.058Z,18.83
2022-10-28T04:41:15.753Z,18.77
2022-10-28T04:43:47.724Z,18.78
2022-10-28T04:46:19.606Z,18.47
2022-10-28T04:48:51.510Z,18.77
2022-10-28T04:51:23.444Z,18.67
2022-10-28T04:53:55.414Z,18.77
2022-10-28T04:56:27.571Z,18.77
2022-10-28T04:59:00.741Z,18.67
2022-10-28T05:01:32.761Z,18.74
2022-10-28T05:04:05.011Z,18.72
2022-10-28T05:06:36.967Z,18.76
2022-10-28T05:09:08.881Z,18.76
2022-10-28T05:11:40.784Z,18.51
2022-10-28T05:14:12.692Z,18.68
2022-10-28T05:16:44.527Z,18.65
2022-10-28T05:19:16.590Z,18.70
2022-10-28T05:21:48.465Z,18.59
2022-10-28T05:24:20.384Z,18.69
2022-10-28T05:26:52.427Z,18.64
2022-10-28T05:29:24.377Z,18.48
2022-10-28T05:31:56.375Z,18.56
2022-10-28T05:34:28.293Z,18.45
2022-10-28T05:37:00.730Z,18.66
2022-10-28T05:39:35.062Z,18.63
2022-10-28T05:42:07.029Z,18.62
2022-10-28T05:44:39.177Z,18.62
2022-10-28T05:47:11.179Z,18.57
2022-10-28T05:49:43.213Z,18.55
2022-10-28T05:52:15.070Z,18.59
2022-10-28T05:54:47.002Z,18.57
2022-10-28T05:57:18.871Z,18.59
2022-10-28T05:59:50.919Z,18.59
2022-10-28T06:02:22.953Z,18.41
2022-10-28T06:04:54.901Z,18.54
2022-10-28T06:07:29.653Z,18.15
2022-10-28T06:10:03.340Z,18.39
2022-10-28T06:15:10.892Z,18.56
2022-10-28T06:17:48.034Z,18.56
2022-10-28T06:20:20.139Z,18.80
2022-10-28T06:22:55.535Z,18.45
2022-10-28T06:25:27.993Z,18.55
2022-10-28T06:28:04.817Z,18.44
2022-10-28T06:30:38.927Z,18.43
2022-10-28T06:33:10.944Z,18.61
2022-10-28T06:35:42.949Z,18.41
2022-10-28T06:38:15.322Z,18.52
2022-10-28T06:40:50.218Z,18.27
2022-10-28T06:43:24.672Z,18.51
2022-10-28T06:46:01.522Z,18.52
2022-10-28T06:48:35.014Z,18.60
2022-10-28T06:51:07.040Z,18.59
2022-10-28T06:53:38.998Z,18.61
2022-10-28T06:56:11.199Z,18.56
2022-10-28T06:58:43.197Z,18.60
2022-10-28T07:01:15.229Z,18.61
2022-10-28T07:03:48.507Z,18.52
2022-10-28T07:06:20.454Z,18.62
2022-10-28T07:08:52.691Z,18.49
2022-10-28T07:11:24.620Z,18.64
2022-10-28T07:13:56.495Z,18.66
2022-10-28T07:16:28.391Z,18.65
2022-10-28T07:19:00.737Z,18.60
2022-10-28T07:21:32.651Z,18.64
2022-10-28T07:24:04.837Z,18.73
2022-10-28T07:26:36.818Z,18.82
2022-10-28T07:29:08.985Z,18.76
2022-10-28T07:31:40.969Z,18.50
2022-10-28T07:34:12.969Z,18.95
2022-10-28T07:36:44.843Z,19.05
2022-10-28T07:39:17.232Z,18.84
2022-10-28T07:41:49.178Z,19.12
2022-10-28T07:44:21.185Z,19.16
2022-10-28T07:46:55.764Z,19.20
2022-10-28T07:49:30.112Z,19.34
2022-10-28T07:52:02.138Z,19.39
2022-10-28T07:54:34.041Z,19.52
2022-10-28T07:57:06.136Z,19.56
2022-10-28T07:59:38.200Z,19.58
2022-10-28T08:02:19.156Z,19.72
2022-10-28T08:04:51.662Z,19.91
2022-10-28T08:07:23.754Z,20.04
2022-10-28T08:09:55.881Z,20.17
2022-10-28T08:12:28.523Z,20.22
2022-10-28T08:15:01.081Z,20.40
2022-10-28T08:17:33.047Z,20.50
2022-10-28T08:20:06.265Z,20.55
2022-10-28T08:22:38.198Z,20.43
2022-10-28T08:25:10.414Z,20.55
2022-10-28T08:27:42.355Z,20.65
2022-10-28T08:30:14.326Z,20.56
2022-10-28T08:32:46.268Z,20.62
2022-10-28T08:35:18.154Z,20.51
2022-10-28T08:37:53.521Z,20.42
2022-10-28T08:40:54.065Z,20.51
2022-10-28T08:43:52.668Z,20.52
2022-10-28T08:47:11.986Z,20.50
2022-10-28T08:49:49.366Z,20.48
2022-10-28T08:53:01.341Z,20.62
2022-10-28T08:55:54.202Z,20.54
2022-10-28T08:58:34.005Z,20.83
2022-10-28T09:01:17.372Z,20.81
2022-10-28T09:03:53.386Z,21.09
2022-10-28T09:06:25.364Z,21.19
2022-10-28T09:08:59.532Z,21.28
2022-10-28T09:11:52.132Z,21.24
2022-10-28T09:14:49.584Z,21.41
2022-10-28T09:17:38.631Z,21.43
2022-10-28T09:20:20.621Z,21.48
2022-10-28T09:22:59.841Z,21.35
2022-10-28T09:26:02.233Z,21.74
2022-10-28T09:28:59.707Z,21.82
2022-10-28T09:31:47.765Z,22.17
2022-10-28T09:34:48.704Z,22.21
2022-10-28T09:37:32.770Z,21.83
2022-10-28T09:40:19.678Z,21.97
2022-10-28T09:43:13.235Z,21.94
2022-10-28T09:45:49.348Z,21.78
2022-10-28T09:48:31.438Z,21.83
2022-10-28T09:51:04.195Z,22.03
2022-10-28T09:53:52.157Z,22.10
2022-10-28T09:56:25.691Z,22.22
2022-10-28T09:59:03.022Z,22.32
2022-10-28T10:01:42.517Z,22.42
2022-10-28T10:04:26.968Z,22.44
2022-10-28T10:07:12.630Z,22.77
2022-10-28T10:09:45.424Z,23.00
2022-10-28T10:12:17.720Z,23.06
2022-10-28T10:14:53.931Z,23.06
2022-10-28T10:17:44.967Z,22.99
2022-10-28T10:20:21.366Z,22.99
2022-10-28T10:22:53.742Z,23.20
2022-10-28T10:25:31.069Z,23.15
2022-10-28T10:28:15.646Z,23.23
2022-10-28T10:30:57.553Z,23.27
2022-10-28T10:33:39.811Z,23.56
2022-10-28T10:36:11.737Z,23.68
2022-10-28T10:38:54.516Z,23.76
2022-10-28T10:41:45.610Z,23.83
2022-10-28T10:44:23.465Z,23.88
2022-10-28T10:46:55.584Z,23.97
2022-10-28T10:49:29.594Z,23.94
2022-10-28T10:52:16.713Z,24.11
2022-10-28T10:55:22.884Z,24.20
2022-10-28T10:57:55.783Z,24.17
2022-10-28T11:00:46.042Z,23.88
2022-10-28T11:03:28.249Z,24.26
2022-10-28T11:06:22.432Z,24.27
2022-10-28T11:09:05.073Z,24.33
2022-10-28T11:11:40.692Z,24.36
2022-10-28T11:14:13.470Z,24.58
2022-10-28T11:16:55.980Z,24.41
2022-10-28T11:19:41.560Z,24.44
2022-10-28T11:22:46.457Z,24.41
2022-10-28T11:25:49.559Z,24.26
2022-10-28T11:28:49.334Z,24.25
2022-10-28T11:31:48.657Z,24.17
2022-10-28T11:35:04.566Z,24.20
2022-10-28T11:38:27.092Z,24.18
2022-10-28T11:41:22.070Z,24.17
2022-10-28T11:44:04.735Z,23.90
2022-10-28T11:47:04.075Z,24.18
2022-10-28T11:50:21.471Z,24.17
2022-10-28T11:53:47.145Z,24.11
2022-10-28T11:57:06.815Z,24.07
2022-10-28T12:00:24.717Z,24.06
2022-10-28T12:03:40.002Z,24.01
2022-10-28T12:06:57.808Z,24.10
2022-10-28T12:10:20.983Z,24.09
2022-10-28T12:13:25.301Z,24.05
2022-10-28T12:16:27.718Z,24.08
2022-10-28T12:19:30.915Z,24.06
2022-10-28T12:22:13.418Z,23.70
2022-10-28T12:24:47.340Z,24.07
2022-10-28T12:27:37.628Z,24.14
2022-10-28T12:30:21.704Z,24.23
2022-10-28T12:33:18.818Z,24.08
2022-10-28T12:36:08.998Z,24.27
2022-10-28T12:38:50.906Z,24.22
2022-10-28T12:41:45.427Z,24.30
2022-10-28T12:44:22.207Z,24.43
2022-10-28T12:47:10.821Z,24.50
2022-10-28T12:50:00.097Z,24.43
2022-10-28T12:52:53.879Z,24.29
2022-10-28T12:55:47.122Z,24.23
2022-10-28T12:58:28.729Z,24.23
2022-10-28T13:01:18.407Z,24.16
2022-10-28T13:03:51.162Z,24.11
2022-10-28T13:06:51.009Z,24.03
2022-10-28T13:09:45.525Z,23.96
2022-10-28T13:12:48.736Z,23.94
2022-10-28T13:15:46.683Z,23.85
2022-10-28T13:18:41.181Z,23.73
2022-10-28T13:21:54.505Z,23.81
2022-10-28T13:24:49.516Z,23.78
2022-10-28T13:27:22.580Z,23.77
2022-10-28T13:29:59.866Z,23.70
2022-10-28T13:32:39.182Z,23.65
2022-10-28T13:35:32.730Z,23.82
2022-10-28T13:38:12.676Z,23.85
2022-10-28T13:40:47.745Z,23.92
2022-10-28T13:43:41.831Z,23.96
2022-10-28T13:46:13.789Z,24.00
2022-10-28T13:48:48.618Z,24.11
2022-10-28T13:51:23.663Z,24.18
2022-10-28T13:53:57.652Z,24.10
2022-10-28T13:56:46.580Z,24.20
2022-10-28T13:59:25.529Z,24.29
2022-10-28T14:02:32.342Z,24.13
2022-10-28T14:04:59.930Z,24.31
2022-10-28T14:07:36.448Z,24.30
2022-10-28T14:10:20.860Z,24.42
2022-10-28T14:13:04.895Z,24.46
2022-10-28T14:15:43.512Z,24.58
2022-10-28T14:18:41.771Z,24.89
2022-10-28T14:21:07.742Z,24.98
2022-10-28T14:23:42.788Z,24.98
2022-10-28T14:26:14.748Z,24.91
2022-10-28T14:28:52.042Z,24.69
2022-10-28T14:31:40.125Z,24.71
2022-10-28T14:34:14.778Z,24.67
2022-10-28T14:37:27.497Z,24.44
2022-10-28T14:40:33.586Z,24.37
2022-10-28T14:43:31.096Z,24.35
2022-10-28T14:46:17.715Z,24.25
2022-10-28T14:48:55.653Z,24.03
2022-10-28T14:51:41.885Z,24.16
2022-10-28T14:54:43.612Z,24.17
2022-10-28T14:57:22.236Z,24.14
2022-10-28T14:59:55.737Z,23.93
2022-10-28T15:02:30.957Z,23.92
2022-10-28T15:05:11.981Z,23.98
2022-10-28T15:07:44.575Z,23.98
2022-10-28T15:10:25.891Z,23.99
2022-10-28T15:13:00.047Z,23.91
2022-10-28T15:15:35.078Z,23.81
2022-10-28T15:18:25.385Z,23.80
2022-10-28T15:21:15.525Z,23.74
2022-10-28T15:24:01.754Z,23.69
2022-10-28T15:26:33.796Z,23.66
2022-10-28T15:29:06.069Z,23.64
2022-10-28T15:32:25.747Z,23.49
2022-10-28T15:34:58.052Z,23.50
2022-10-28T15:37:36.500Z,23.46
2022-10-28T15:40:28.372Z,23.38
2022-10-28T15:43:07.079Z,23.36
2022-10-28T15:45:42.503Z,23.29
2022-10-28T15:48:24.597Z,23.20
2022-10-28T15:51:20.321Z,23.20
2022-10-28T15:54:12.029Z,23.14
2022-10-28T15:56:58.276Z,23.15
2022-10-28T15:59:30.209Z,23.13
2022-10-28T16:02:02.216Z,23.07
2022-10-28T16:04:42.124Z,23.13
2022-10-28T16:07:14.280Z,23.10
2022-10-28T16:09:50.283Z,23.03
2022-10-28T16:12:26.660Z,23.06
2022-10-28T16:15:02.522Z,23.08
2022-10-28T16:17:42.172Z,22.97
2022-10-28T16:20:22.036Z,23.02
2022-10-28T16:22:54.187Z,22.98
2022-10-28T16:25:26.144Z,22.87
2022-10-28T16:27:58.340Z,22.91
2022-10-28T16:30:30.571Z,22.88
2022-10-28T16:33:02.983Z,22.77
2022-10-28T16:35:35.925Z,22.81
2022-10-28T16:38:14.737Z,22.70
2022-10-28T16:40:51.345Z,22.72
2022-10-28T16:43:26.122Z,22.69
2022-10-28T16:46:00.575Z,22.65
2022-10-28T16:48:32.592Z,22.61
2022-10-28T16:51:16.137Z,22.44
2022-10-28T16:53:49.714Z,22.54
2022-10-28T16:56:21.687Z,22.49
2022-10-28T16:58:53.617Z,22.41
2022-10-28T17:01:25.700Z,22.43
2022-10-28T17:03:57.657Z,22.28
2022-10-28T17:06:32.325Z,22.07
2022-10-28T17:09:04.417Z,22.13
2022-10-28T17:11:36.365Z,22.52
2022-10-28T17:14:11.843Z,22.58
2022-10-28T17:16:43.823Z,21.55
2022-10-28T17:19:15.822Z,22.10
2022-10-28T17:21:47.719Z,22.16
2022-10-28T17:24:20.593Z,22.11
2022-10-28T17:26:53.352Z,22.06
2022-10-28T17:29:25.606Z,21.95
2022-10-28T17:31:57.666Z,21.53
2022-10-28T17:34:29.849Z,21.85
2022-10-28T17:37:01.877Z,21.94
2022-10-28T17:39:34.246Z,21.87
2022-10-28T17:42:06.444Z,21.68
2022-10-28T17:44:40.660Z,21.89
2022-10-28T17:47:12.900Z,21.72
2022-10-28T17:49:44.869Z,21.85
2022-10-28T17:52:16.891Z,21.70
2022-10-28T17:54:48.875Z,21.63
2022-10-28T17:57:21.036Z,21.64
2022-10-28T17:59:53.032Z,21.70
2022-10-28T18:02:25.389Z,21.72
2022-10-28T18:04:57.405Z,21.41
2022-10-28T18:07:32.553Z,21.69
2022-10-28T18:10:05.029Z,21.67
2022-10-28T18:12:37.033Z,21.59
2022-10-28T18:15:09.736Z,21.65
2022-10-28T18:17:41.840Z,21.62
2022-10-28T18:20:16.556Z,21.58
2022-10-28T18:22:48.618Z,21.62
2022-10-28T18:25:20.542Z,21.60
2022-10-28T18:27:52.526Z,21.55
2022-10-28T18:30:25.125Z,21.54
2022-10-28T18:32:57.327Z,21.34
2022-10-28T18:35:29.673Z,21.52
2022-10-28T18:38:01.912Z,21.35
2022-10-28T18:40:33.875Z,21.37
2022-10-28T18:43:06.531Z,21.43
2022-10-28T18:45:39.001Z,21.38
2022-10-28T18:48:10.935Z,21.18
2022-10-28T18:50:45.677Z,21.33
2022-10-28T18:53:20.999Z,21.00
2022-10-28T18:55:53.797Z,21.08
2022-10-28T18:58:28.933Z,21.08
2022-10-28T19:01:12.864Z,21.28
2022-10-28T19:03:45.329Z,21.14
2022-10-28T19:06:19.129Z,21.19
2022-10-28T19:08:54.589Z,21.19
2022-10-28T19:11:32.446Z,21.07
2022-10-28T19:14:06.623Z,20.95
2022-10-28T19:16:38.979Z,21.10
2022-10-28T19:19:11.134Z,21.01
2022-10-28T19:21:49.237Z,20.73
2022-10-28T19:24:21.209Z,20.68
2022-10-28T19:26:53.171Z,20.96
2022-10-28T19:29:25.310Z,20.91
2022-10-28T19:31:57.288Z,20.91
2022-10-28T19:34:29.411Z,20.87
2022-10-28T19:37:01.345Z,20.85
2022-10-28T19:39:33.354Z,20.81
2022-10-28T19:42:06.030Z,20.79
2022-10-28T19:44:38.353Z,20.77
2022-10-28T19:47:11.166Z,20.67
2022-10-28T19:49:45.706Z,20.37
2022-10-28T19:52:17.724Z,20.53
2022-10-28T19:54:49.651Z,20.65
2022-10-28T19:57:21.577Z,20.60
2022-10-28T19:59:53.441Z,20.59
2022-10-28T20:02:25.639Z,20.59
2022-10-28T20:04:57.973Z,20.40
2022-10-28T20:07:29.952Z,20.48
2022-10-28T20:10:02.107Z,20.40
2022-10-28T20:12:34.013Z,20.37
2022-10-28T20:15:07.172Z,20.37
2022-10-28T20:17:47.525Z,20.45
2022-10-28T20:20:19.513Z,20.42
2022-10-28T20:22:51.516Z,20.40
2022-10-28T20:25:23.396Z,20.32
2022-10-28T20:27:55.602Z,20.26
2022-10-28T20:30:27.825Z,20.33
2022-10-28T20:32:59.816Z,20.31
2022-10-28T20:35:35.916Z,20.28
2022-10-28T20:40:50.466Z,20.24
2022-10-28T20:43:25.397Z,20.18
2022-10-28T20:46:02.677Z,20.09
2022-10-28T20:48:34.676Z,20.18
2022-10-28T20:51:06.742Z,20.14
2022-10-28T20:53:39.041Z,20.14
2022-10-28T20:56:26.357Z,20.09
2022-10-28T20:58:58.787Z,20.06
2022-10-28T21:01:35.163Z,20.07
2022-10-28T21:04:11.287Z,20.03
2022-10-28T21:06:43.304Z,20.05
2022-10-28T21:09:15.373Z,20.08
2022-10-28T21:11:47.352Z,20.14
2022-10-28T21:14:19.511Z,20.07
2022-10-28T21:16:51.767Z,20.07
2022-10-28T21:19:24.164Z,20.03
2022-10-28T21:21:56.235Z,20.07
2022-10-28T21:24:28.387Z,20.07
2022-10-28T21:27:00.329Z,19.96
2022-10-28T21:30:07.693Z,19.78
2022-10-28T21:32:40.438Z,19.97
2022-10-28T21:35:12.416Z,19.91
2022-10-28T21:37:44.521Z,19.75
2022-10-28T21:40:16.727Z,19.77
2022-10-28T21:42:50.087Z,19.83
2022-10-28T21:45:26.180Z,19.76
2022-10-28T21:47:58.596Z,19.76
2022-10-28T21:50:32.926Z,19.72
2022-10-28T21:53:04.983Z,19.53
2022-10-28T21:55:46.778Z,19.64
2022-10-28T21:58:20.960Z,19.60
2022-10-28T22:00:52.901Z,19.58
2022-10-28T22:03:24.950Z,19.42
2022-10-28T22:05:56.941Z,19.19
2022-10-28T22:08:29.126Z,19.53
2022-10-28T22:11:08.189Z,19.39
2022-10-28T22:13:43.959Z,19.50
2022-10-28T22:16:25.607Z,18.94
2022-10-28T22:19:17.790Z,19.27
2022-10-28T22:21:52.701Z,18.60
2022-10-28T22:24:24.702Z,19.09
2022-10-28T22:26:56.566Z,19.37
2022-10-28T22:29:28.606Z,19.34
2022-10-28T22:32:00.589Z,19.25
2022-10-28T22:34:32.799Z,19.38
2022-10-28T22:37:04.851Z,19.35
2022-10-28T22:39:39.858Z,19.27
2022-10-28T22:42:14.594Z,19.36
2022-10-28T22:44:46.615Z,19.34
2022-10-28T22:47:18.802Z,19.23
2022-10-28T22:49:50.745Z,19.24
2022-10-28T22:52:22.783Z,19.33
2022-10-28T22:54:54.679Z,19.15
2022-10-28T22:57:26.613Z,19.34
2022-10-28T22:59:58.546Z,19.28
2022-10-28T23:02:31.143Z,19.34
2022-10-28T23:05:03.184Z,19.28
2022-10-28T23:07:35.061Z,19.34
2022-10-28T23:10:07.744Z,19.19
2022-10-28T23:12:40.077Z,19.30
2022-10-28T23:15:11.985Z,19.30
2022-10-28T23:17:49.590Z,19.29
2022-10-28T23:20:24.856Z,19.32
2022-10-28T23:22:56.925Z,19.24
2022-10-28T23:25:28.918Z,19.24
2022-10-28T23:28:04.001Z,19.30
2022-10-28T23:30:36.011Z,19.25
2022-10-28T23:33:07.918Z,19.23
2022-10-28T23:35:41.740Z,19.19
2022-10-28T23:38:16.572Z,19.22
2022-10-28T23:40:56.100Z,19.16
2022-10-28T23:43:29.663Z,19.15
2022-10-28T23:46:02.169Z,19.12
2022-10-28T23:48:34.353Z,19.19
2022-10-28T23:51:07.311Z,19.18
2022-10-28T23:53:39.790Z,19.16
2022-10-28T23:56:11.763Z,18.94
2022-10-28T23:58:43.784Z,19.17
